Time;durP1;ratioP1;P1;durP2;ratioP2;P2;SDS_P1;SDS_P2;PMS_P1;PMS_P2;Temp;Humidity;BMP_temperature;BMP_pressure;BME280_temperature;BME280_humidity;BME280_pressure;Samples;Min_cycle;Max_cycle;Signal;HPM_P1;HPM_P2
2021/09/08 00:01:26;;;;;;;9.90;6.75;;;20.60;99.90;;;;;;4111289;28;20046;-69
2021/09/08 00:03:27;;;;;;;10.48;6.50;;;20.50;99.90;;;;;;4111852;28;20429;-69
2021/09/08 00:05:27;;;;;;;8.15;6.28;;;20.50;99.90;;;;;;4106460;28;20479;-69
2021/09/08 00:07:28;;;;;;;10.27;6.07;;;20.40;99.90;;;;;;4108074;28;20031;-69
2021/09/08 00:09:29;;;;;;;7.93;5.93;;;20.40;99.90;;;;;;4105943;28;20074;-69
2021/09/08 00:11:30;;;;;;;8.77;6.20;;;20.40;99.90;;;;;;4109127;28;20098;-69
2021/09/08 00:13:31;;;;;;;9.25;6.22;;;20.40;99.90;;;;;;4112815;28;20034;-69
2021/09/08 00:15:31;;;;;;;9.85;6.57;;;20.40;99.90;;;;;;4116103;28;20046;-69
2021/09/08 00:17:32;;;;;;;8.90;6.38;;;20.30;99.90;;;;;;4111546;28;20495;-69
2021/09/08 00:19:33;;;;;;;11.05;6.68;;;20.40;99.90;;;;;;4110174;28;20062;-69
2021/09/08 00:21:34;;;;;;;9.50;6.45;;;20.30;99.90;;;;;;4117653;28;20034;-69
2021/09/08 00:23:35;;;;;;;11.77;7.13;;;20.30;99.90;;;;;;4112271;28;20039;-69
2021/09/08 00:25:35;;;;;;;13.93;6.35;;;20.20;99.90;;;;;;4112460;28;20098;-69
2021/09/08 00:27:36;;;;;;;10.98;6.85;;;20.30;99.90;;;;;;4103931;28;20042;-69
2021/09/08 00:29:38;;;;;;;10.20;7.28;;;20.20;99.90;;;;;;4114974;28;20038;-69
2021/09/08 00:31:38;;;;;;;9.90;6.90;;;20.20;99.90;;;;;;4113991;28;20668;-69
2021/09/08 00:33:39;;;;;;;10.05;7.10;;;20.20;99.90;;;;;;4110563;28;20030;-69
2021/09/08 00:35:39;;;;;;;7.97;6.18;;;20.10;99.90;;;;;;4115847;28;20149;-69
2021/09/08 00:37:41;;;;;;;10.23;6.82;;;20.10;99.90;;;;;;4112352;28;20046;-69
2021/09/08 00:39:42;;;;;;;10.55;7.07;;;20.10;99.90;;;;;;4111812;28;20113;-69
2021/09/08 00:41:42;;;;;;;9.70;6.85;;;20.10;99.90;;;;;;4112568;28;20057;-69
2021/09/08 00:43:43;;;;;;;9.95;6.63;;;20.00;99.90;;;;;;4119411;28;20033;-69
2021/09/08 00:45:51;;;;;;;11.05;7.22;;;20.00;99.90;;;;;;4118141;28;20370;-69
2021/09/08 00:47:52;;;;;;;9.68;7.22;;;20.00;99.90;;;;;;4112594;28;20038;-69
2021/09/08 00:49:52;;;;;;;13.10;7.70;;;19.90;99.90;;;;;;4122476;28;20026;-69
2021/09/08 00:51:55;;;;;;;11.00;8.05;;;19.90;99.90;;;;;;4114552;28;20461;-69
2021/09/08 00:53:57;;;;;;;11.52;7.93;;;19.90;99.90;;;;;;4112364;28;20038;-69
2021/09/08 00:56:01;;;;;;;12.57;6.82;;;19.90;99.90;;;;;;4114350;28;20126;-69
2021/09/08 00:58:02;;;;;;;9.43;6.97;;;19.80;99.90;;;;;;4115293;28;20594;-69
2021/09/08 01:00:04;;;;;;;9.82;7.05;;;19.70;99.90;;;;;;4118935;28;20039;-69
2021/09/08 01:02:04;;;;;;;10.00;7.18;;;19.70;99.90;;;;;;4117141;28;20754;-69
2021/09/08 01:04:06;;;;;;;11.30;6.72;;;19.70;99.90;;;;;;4119495;28;20081;-69
2021/09/08 01:06:07;;;;;;;10.80;7.15;;;19.70;99.90;;;;;;4117935;28;20037;-69
2021/09/08 01:08:07;;;;;;;10.40;6.93;;;19.70;99.90;;;;;;4115078;28;20038;-69
2021/09/08 01:10:08;;;;;;;12.23;7.93;;;19.70;99.90;;;;;;4114420;28;20513;-69
2021/09/08 01:12:09;;;;;;;11.60;7.25;;;19.60;99.90;;;;;;4113765;28;20039;-69
2021/09/08 01:14:10;;;;;;;12.38;6.93;;;19.60;99.90;;;;;;4116400;28;20049;-69
2021/09/08 01:16:10;;;;;;;10.55;6.70;;;19.60;99.90;;;;;;4125609;28;20032;-69
2021/09/08 01:18:11;;;;;;;10.95;6.43;;;19.60;99.90;;;;;;4117285;28;20037;-69
2021/09/08 01:20:13;;;;;;;11.43;6.85;;;19.60;99.90;;;;;;4111209;28;20031;-69
2021/09/08 01:22:13;;;;;;;10.60;7.20;;;19.60;99.90;;;;;;4113071;28;20418;-69
2021/09/08 01:24:15;;;;;;;9.45;7.03;;;19.60;99.90;;;;;;4097667;28;20023;-69
2021/09/08 01:26:16;;;;;;;10.93;7.65;;;19.60;99.90;;;;;;4120171;28;20023;-69
2021/09/08 01:28:16;;;;;;;11.75;7.97;;;19.60;99.90;;;;;;4124098;28;20525;-69
2021/09/08 01:30:19;;;;;;;12.65;7.78;;;19.50;99.90;;;;;;4114021;28;20031;-69
2021/09/08 01:32:20;;;;;;;10.73;7.55;;;19.50;99.90;;;;;;4120155;28;20348;-69
2021/09/08 01:34:21;;;;;;;12.40;8.05;;;19.50;99.90;;;;;;4116967;28;20162;-69
2021/09/08 01:36:22;;;;;;;9.93;7.20;;;19.50;99.90;;;;;;4116793;28;20041;-69
2021/09/08 01:38:23;;;;;;;12.15;7.57;;;19.50;99.90;;;;;;4111111;28;20641;-69
2021/09/08 01:40:24;;;;;;;11.90;7.53;;;19.50;99.90;;;;;;4111263;28;20147;-69
2021/09/08 01:42:24;;;;;;;14.50;7.70;;;19.50;99.90;;;;;;4113537;28;20070;-69
2021/09/08 01:44:25;;;;;;;9.32;6.65;;;19.40;99.90;;;;;;4111868;28;20043;-69
2021/09/08 01:46:26;;;;;;;11.35;7.72;;;19.40;99.90;;;;;;4109975;28;20407;-69
2021/09/08 01:48:27;;;;;;;9.38;6.97;;;19.40;99.90;;;;;;4115210;28;20094;-69
2021/09/08 01:50:28;;;;;;;9.90;6.85;;;19.40;99.90;;;;;;4093139;28;20090;-69
2021/09/08 01:52:28;;;;;;;11.05;7.93;;;19.40;99.90;;;;;;4116661;28;20681;-69
2021/09/08 01:54:30;;;;;;;12.15;8.07;;;19.40;99.90;;;;;;4111420;28;20031;-69
2021/09/08 01:56:30;;;;;;;9.93;6.78;;;19.30;99.90;;;;;;4111791;28;20038;-69
2021/09/08 01:58:31;;;;;;;10.93;7.07;;;19.40;99.90;;;;;;4118298;28;20050;-69
2021/09/08 02:00:32;;;;;;;10.88;7.05;;;19.30;99.90;;;;;;4120299;28;20061;-69
2021/09/08 02:02:33;;;;;;;11.43;7.30;;;19.30;99.90;;;;;;4114807;28;20035;-69
2021/09/08 02:04:34;;;;;;;10.75;6.80;;;19.30;99.90;;;;;;4113481;28;20074;-69
2021/09/08 02:06:34;;;;;;;11.35;7.32;;;19.30;99.90;;;;;;4108279;28;20097;-69
2021/09/08 02:08:35;;;;;;;11.00;7.75;;;19.30;99.90;;;;;;4110709;28;20031;-69
2021/09/08 02:10:35;;;;;;;11.10;7.53;;;19.30;99.90;;;;;;4115780;28;20043;-69
2021/09/08 02:12:37;;;;;;;11.02;7.28;;;19.30;99.90;;;;;;4124829;28;20034;-69
2021/09/08 02:14:37;;;;;;;12.77;7.88;;;19.20;99.90;;;;;;4124778;28;20042;-69
2021/09/08 02:16:38;;;;;;;11.30;7.57;;;19.20;99.90;;;;;;4107682;28;20532;-69
2021/09/08 02:18:39;;;;;;;11.25;7.75;;;19.20;99.90;;;;;;4124863;28;20416;-69
2021/09/08 02:20:40;;;;;;;11.30;7.82;;;19.20;99.90;;;;;;4107944;28;20054;-69
2021/09/08 02:22:40;;;;;;;15.38;7.97;;;19.20;99.90;;;;;;4125347;28;20039;-69
2021/09/08 02:24:41;;;;;;;10.00;7.22;;;19.20;99.90;;;;;;4125466;28;20117;-69
2021/09/08 02:26:42;;;;;;;12.23;7.75;;;19.10;99.90;;;;;;4125437;28;20030;-69
2021/09/08 02:28:42;;;;;;;12.75;7.15;;;19.10;99.90;;;;;;4124691;28;20073;-69
2021/09/08 02:30:43;;;;;;;11.75;7.45;;;19.10;99.90;;;;;;4124552;28;20121;-69
2021/09/08 02:32:43;;;;;;;13.50;7.68;;;19.10;99.90;;;;;;4125522;28;20033;-69
2021/09/08 02:34:44;;;;;;;10.07;6.93;;;19.10;99.90;;;;;;4111180;28;20102;-69
2021/09/08 02:36:45;;;;;;;9.50;6.78;;;19.10;99.90;;;;;;4124098;28;20042;-69
2021/09/08 02:38:45;;;;;;;10.43;6.50;;;19.10;99.90;;;;;;4124552;28;20706;-69
2021/09/08 02:40:46;;;;;;;11.55;7.82;;;19.10;99.90;;;;;;4124221;28;20483;-69
2021/09/08 02:42:47;;;;;;;9.27;7.30;;;19.10;99.90;;;;;;4125254;28;20077;-69
2021/09/08 02:44:48;;;;;;;10.95;7.45;;;19.00;99.90;;;;;;4124881;28;20039;-69
2021/09/08 02:46:49;;;;;;;11.45;7.93;;;19.00;99.90;;;;;;4124384;28;20491;-69
2021/09/08 02:48:50;;;;;;;12.05;7.57;;;19.00;99.90;;;;;;4124516;28;20019;-69
2021/09/08 02:50:50;;;;;;;10.90;7.32;;;19.00;99.90;;;;;;4124556;28;20026;-69
2021/09/08 02:52:51;;;;;;;13.77;7.85;;;19.00;99.90;;;;;;4124783;28;20595;-69
2021/09/08 02:54:52;;;;;;;13.75;8.32;;;19.00;99.90;;;;;;4123255;28;20065;-69
2021/09/08 02:56:53;;;;;;;10.23;7.70;;;19.00;99.90;;;;;;4124713;28;20026;-69
2021/09/08 02:58:53;;;;;;;12.10;8.35;;;18.90;99.90;;;;;;4124096;28;20036;-69
2021/09/08 03:00:54;;;;;;;12.15;8.35;;;19.00;99.90;;;;;;4107136;28;20034;-68
2021/09/08 03:02:55;;;;;;;12.18;8.50;;;18.90;99.90;;;;;;4124418;28;20057;-69
2021/09/08 03:04:55;;;;;;;14.88;8.13;;;18.90;99.90;;;;;;4123822;28;20777;-69
2021/09/08 03:06:56;;;;;;;12.55;8.25;;;18.90;99.90;;;;;;4124364;28;20121;-69
2021/09/08 03:08:57;;;;;;;11.98;8.02;;;18.90;99.90;;;;;;4124539;28;20467;-69
2021/09/08 03:10:58;;;;;;;12.68;8.52;;;18.80;99.90;;;;;;4124254;28;20058;-69
2021/09/08 03:12:58;;;;;;;10.68;7.90;;;18.80;99.90;;;;;;4123993;28;20037;-69
2021/09/08 03:14:59;;;;;;;11.27;7.65;;;18.80;99.90;;;;;;4124677;28;20028;-69
2021/09/08 03:16:59;;;;;;;10.63;7.75;;;18.80;99.90;;;;;;4124514;28;20100;-69
2021/09/08 03:19:00;;;;;;;11.68;7.60;;;18.80;99.90;;;;;;4124602;28;20037;-69
2021/09/08 03:21:01;;;;;;;12.68;7.50;;;18.80;99.90;;;;;;4124458;28;20129;-68
2021/09/08 03:23:02;;;;;;;13.35;8.23;;;18.80;99.90;;;;;;4124707;28;20559;-69
2021/09/08 03:25:03;;;;;;;10.27;7.00;;;18.80;99.90;;;;;;4124345;28;20031;-69
2021/09/08 03:27:04;;;;;;;12.68;7.30;;;18.80;99.90;;;;;;4124307;28;20053;-69
2021/09/08 03:29:04;;;;;;;11.85;7.45;;;18.70;99.90;;;;;;4124147;28;20054;-69
2021/09/08 03:31:05;;;;;;;11.98;7.80;;;18.80;99.90;;;;;;4124077;28;20064;-69
2021/09/08 03:33:05;;;;;;;11.93;7.28;;;18.70;99.90;;;;;;4124592;28;20030;-69
2021/09/08 03:35:07;;;;;;;10.98;7.38;;;18.70;99.90;;;;;;4124686;28;20582;-69
2021/09/08 03:37:07;;;;;;;18.75;7.82;;;18.70;99.90;;;;;;4128522;28;20034;-69
2021/09/08 03:39:08;;;;;;;11.95;8.02;;;18.70;99.90;;;;;;4126768;28;20168;-69
2021/09/08 03:41:08;;;;;;;12.13;8.20;;;18.70;99.90;;;;;;4123741;28;20713;-69
2021/09/08 03:43:09;;;;;;;11.73;7.85;;;18.60;99.90;;;;;;4124335;28;20065;-69
2021/09/08 03:45:12;;;;;;;14.65;9.45;;;18.70;99.90;;;;;;4106791;28;20031;-69
2021/09/08 03:47:12;;;;;;;13.23;9.35;;;18.60;99.90;;;;;;4123003;28;20030;-69
2021/09/08 03:49:13;;;;;;;13.30;8.85;;;18.60;99.90;;;;;;4123976;28;24528;-68
2021/09/08 03:51:15;;;;;;;12.90;8.63;;;18.60;99.90;;;;;;4124190;28;20027;-69
2021/09/08 03:53:16;;;;;;;13.95;8.85;;;18.50;99.90;;;;;;4107198;28;20106;-69
2021/09/08 03:55:17;;;;;;;13.88;8.68;;;18.50;99.90;;;;;;4124421;28;20042;-69
2021/09/08 03:57:17;;;;;;;14.40;9.50;;;18.50;99.90;;;;;;4124549;28;20032;-69
2021/09/08 03:59:21;;;;;;;14.27;8.65;;;18.50;99.90;;;;;;4123781;28;20501;-68
2021/09/08 04:01:22;;;;;;;13.30;8.60;;;18.50;99.90;;;;;;4123499;28;20042;-69
2021/09/08 04:03:22;;;;;;;12.70;9.32;;;18.50;99.90;;;;;;4123933;28;20034;-69
2021/09/08 04:05:23;;;;;;;13.65;8.75;;;18.40;99.90;;;;;;4123603;28;20027;-68
2021/09/08 04:07:25;;;;;;;12.65;8.45;;;18.40;99.90;;;;;;4122801;28;20465;-69
2021/09/08 04:09:25;;;;;;;12.70;8.83;;;18.30;99.90;;;;;;4123175;28;20026;-69
2021/09/08 04:11:26;;;;;;;12.80;7.82;;;18.40;99.90;;;;;;4106174;28;20782;-69
2021/09/08 04:13:26;;;;;;;13.48;8.63;;;18.40;99.90;;;;;;4123768;28;20069;-69
2021/09/08 04:15:27;;;;;;;12.43;8.88;;;18.40;99.90;;;;;;4123051;28;20040;-69
2021/09/08 04:17:29;;;;;;;13.43;8.80;;;18.30;99.90;;;;;;4123141;28;20128;-68
2021/09/08 04:19:29;;;;;;;13.32;9.23;;;18.30;99.90;;;;;;4108889;28;20039;-68
2021/09/08 04:21:30;;;;;;;14.13;9.18;;;18.30;99.90;;;;;;4123569;28;20077;-68
2021/09/08 04:23:31;;;;;;;14.52;9.30;;;18.30;99.90;;;;;;4123796;28;20060;-69
2021/09/08 04:25:31;;;;;;;13.95;9.77;;;18.30;99.90;;;;;;4124215;28;20033;-69
2021/09/08 04:27:32;;;;;;;14.48;9.30;;;18.30;99.90;;;;;;4126840;28;20022;-69
2021/09/08 04:29:32;;;;;;;14.30;9.02;;;18.30;99.90;;;;;;4112070;28;20035;-69
2021/09/08 04:31:33;;;;;;;14.88;9.77;;;18.30;99.90;;;;;;4126745;28;20034;-69
2021/09/08 04:33:33;;;;;;;15.02;9.02;;;18.30;99.90;;;;;;4126512;28;20043;-69
2021/09/08 04:35:34;;;;;;;16.70;10.65;;;18.20;99.90;;;;;;4127099;28;20401;-69
2021/09/08 04:37:36;;;;;;;16.00;9.50;;;18.30;99.90;;;;;;4110843;28;20061;-68
2021/09/08 04:39:37;;;;;;;14.40;9.82;;;18.20;99.90;;;;;;4133826;28;20092;-69
2021/09/08 04:41:37;;;;;;;14.98;9.82;;;18.20;99.90;;;;;;4135997;28;20493;-69
2021/09/08 04:43:39;;;;;;;13.48;8.60;;;18.20;99.90;;;;;;4126252;28;20037;-69
2021/09/08 04:45:39;;;;;;;14.57;8.88;;;18.20;99.90;;;;;;4134045;28;20081;-69
2021/09/08 04:47:40;;;;;;;15.63;9.43;;;18.20;99.90;;;;;;4132562;28;20026;-69
2021/09/08 04:49:41;;;;;;;13.35;8.68;;;18.20;99.90;;;;;;4149897;28;20041;-69
2021/09/08 04:51:41;;;;;;;14.77;9.05;;;18.20;99.90;;;;;;4133883;28;20741;-69
2021/09/08 04:53:43;;;;;;;12.55;8.85;;;18.20;99.90;;;;;;4128282;28;20045;-69
2021/09/08 04:55:44;;;;;;;13.05;9.02;;;18.20;99.90;;;;;;4133002;28;20114;-70
2021/09/08 04:57:45;;;;;;;12.27;8.20;;;18.20;99.90;;;;;;4121782;28;20065;-70
2021/09/08 04:59:45;;;;;;;13.00;8.50;;;18.20;99.90;;;;;;4122535;28;20038;-70
2021/09/08 05:01:46;;;;;;;13.60;8.90;;;18.20;99.90;;;;;;4124591;28;20050;-71
2021/09/08 05:03:47;;;;;;;13.85;9.32;;;18.30;99.90;;;;;;4123176;28;20034;-71
2021/09/08 05:05:47;;;;;;;14.43;9.05;;;18.20;99.90;;;;;;4126751;28;20422;-71
2021/09/08 05:07:48;;;;;;;13.10;8.77;;;18.20;99.90;;;;;;4122963;28;20061;-71
2021/09/08 05:09:48;;;;;;;15.55;9.00;;;18.20;99.90;;;;;;4121823;28;20053;-71
2021/09/08 05:11:49;;;;;;;13.70;8.90;;;18.20;99.90;;;;;;4122375;28;20029;-71
2021/09/08 05:13:50;;;;;;;15.80;9.05;;;18.30;99.90;;;;;;4123802;28;20035;-71
2021/09/08 05:15:50;;;;;;;14.90;9.23;;;18.20;99.90;;;;;;4123987;28;20031;-71
2021/09/08 05:17:51;;;;;;;14.93;9.30;;;18.20;99.90;;;;;;4120280;28;20034;-71
2021/09/08 05:19:52;;;;;;;13.90;8.73;;;18.20;99.90;;;;;;4120900;28;20455;-71
2021/09/08 05:21:52;;;;;;;16.15;9.57;;;18.20;99.90;;;;;;4125107;28;20042;-71
2021/09/08 05:23:53;;;;;;;12.68;8.23;;;18.20;99.90;;;;;;4112522;28;20027;-71
2021/09/08 05:25:55;;;;;;;14.02;9.10;;;18.20;99.90;;;;;;4126511;28;20065;-71
2021/09/08 05:27:55;;;;;;;13.25;9.32;;;18.20;99.90;;;;;;4121842;28;20117;-71
2021/09/08 05:29:56;;;;;;;14.45;9.50;;;18.20;99.90;;;;;;4120215;28;20522;-71
2021/09/08 05:31:57;;;;;;;17.58;9.82;;;18.20;99.90;;;;;;4121731;28;20121;-71
2021/09/08 05:33:57;;;;;;;13.98;9.68;;;18.20;99.90;;;;;;4125692;28;20105;-71
2021/09/08 05:35:59;;;;;;;17.52;9.77;;;18.20;99.90;;;;;;4123263;28;20042;-71
2021/09/08 05:37:59;;;;;;;15.57;10.45;;;18.20;99.90;;;;;;4124042;28;20398;-71
2021/09/08 05:40:00;;;;;;;15.75;10.18;;;18.20;99.90;;;;;;4122639;28;20034;-71
2021/09/08 05:42:00;;;;;;;16.67;10.07;;;18.20;99.90;;;;;;4121585;28;20061;-72
2021/09/08 05:44:01;;;;;;;19.10;10.27;;;18.20;99.90;;;;;;4118229;28;20061;-71
2021/09/08 05:46:02;;;;;;;16.42;10.75;;;18.20;99.90;;;;;;4120429;28;20038;-71
2021/09/08 05:48:03;;;;;;;17.67;10.93;;;18.20;99.90;;;;;;4121482;28;20054;-71
2021/09/08 05:50:04;;;;;;;17.73;11.07;;;18.20;99.90;;;;;;4123600;28;20026;-71
2021/09/08 05:52:05;;;;;;;18.08;10.30;;;18.20;99.90;;;;;;4121182;28;20034;-71
2021/09/08 05:54:06;;;;;;;15.20;10.10;;;18.30;99.90;;;;;;4122794;28;20802;-71
2021/09/08 05:56:07;;;;;;;17.35;10.18;;;18.30;99.90;;;;;;4120681;28;20050;-71
2021/09/08 05:58:07;;;;;;;15.90;9.88;;;18.30;99.90;;;;;;4119307;28;20034;-71
2021/09/08 06:00:09;;;;;;;16.50;10.07;;;18.30;99.90;;;;;;4120268;28;20038;-71
2021/09/08 06:02:09;;;;;;;17.95;10.88;;;18.30;99.90;;;;;;4122711;28;20066;-71
2021/09/08 06:04:10;;;;;;;17.63;10.75;;;18.30;99.90;;;;;;4119026;28;20046;-71
2021/09/08 06:06:10;;;;;;;18.42;10.23;;;18.30;99.90;;;;;;4122174;28;20030;-71
2021/09/08 06:08:11;;;;;;;20.88;12.02;;;18.30;99.90;;;;;;4122237;28;20041;-71
2021/09/08 06:10:17;;;;;;;17.98;10.68;;;18.30;99.90;;;;;;4124585;28;20037;-71
2021/09/08 06:12:17;;;;;;;17.75;11.75;;;18.30;99.90;;;;;;4123427;28;20037;-71
2021/09/08 06:14:18;;;;;;;19.92;11.25;;;18.30;99.90;;;;;;4122824;28;20482;-71
2021/09/08 06:16:19;;;;;;;18.02;10.85;;;18.30;99.90;;;;;;4125562;28;20065;-71
2021/09/08 06:18:20;;;;;;;21.08;11.77;;;18.30;99.90;;;;;;4120426;28;20039;-71
2021/09/08 06:20:20;;;;;;;19.60;11.85;;;18.40;99.90;;;;;;4125165;28;20128;-71
2021/09/08 06:22:21;;;;;;;19.75;11.27;;;18.30;99.90;;;;;;4123624;28;20042;-71
2021/09/08 06:24:22;;;;;;;20.75;11.70;;;18.30;99.90;;;;;;4120195;28;20059;-71
2021/09/08 06:26:23;;;;;;;18.42;12.18;;;18.40;99.90;;;;;;4122067;28;20027;-71
2021/09/08 06:28:24;;;;;;;17.43;11.03;;;18.40;99.90;;;;;;4119937;28;20560;-70
2021/09/08 06:30:26;;;;;;;18.58;10.90;;;18.40;99.90;;;;;;4122426;28;20050;-71
2021/09/08 06:32:26;;;;;;;17.27;10.43;;;18.50;99.90;;;;;;4117730;28;20513;-71
2021/09/08 06:34:27;;;;;;;17.83;10.70;;;18.50;99.90;;;;;;4121962;28;20065;-71
2021/09/08 06:36:28;;;;;;;17.63;10.35;;;18.50;99.90;;;;;;4123605;28;20391;-71
2021/09/08 06:38:31;;;;;;;15.07;10.35;;;18.50;99.90;;;;;;4121231;28;20708;-71
2021/09/08 06:40:32;;;;;;;17.05;11.27;;;18.60;99.90;;;;;;4123716;28;20593;-71
2021/09/08 06:42:33;;;;;;;17.05;10.85;;;18.60;99.90;;;;;;4122426;28;20043;-71
2021/09/08 06:44:33;;;;;;;18.73;11.38;;;18.60;99.90;;;;;;4120125;28;20027;-71
2021/09/08 06:46:34;;;;;;;23.27;12.27;;;18.60;99.90;;;;;;4122224;28;20036;-71
2021/09/08 06:48:35;;;;;;;21.17;11.57;;;18.60;99.90;;;;;;4121188;28;20540;-71
2021/09/08 06:50:37;;;;;;;18.70;11.68;;;18.60;99.90;;;;;;4121988;28;20096;-71
2021/09/08 06:52:37;;;;;;;20.83;12.02;;;18.60;99.90;;;;;;4123151;28;20077;-71
2021/09/08 06:54:38;;;;;;;17.83;12.05;;;18.60;99.90;;;;;;4120973;28;20039;-71
2021/09/08 06:56:39;;;;;;;17.70;10.85;;;18.60;99.90;;;;;;4122282;28;20557;-71
2021/09/08 06:58:39;;;;;;;18.67;11.93;;;18.60;99.90;;;;;;4121612;28;20041;-67
2021/09/08 07:00:40;;;;;;;19.55;11.73;;;18.70;99.90;;;;;;4120156;28;20042;-68
2021/09/08 07:02:41;;;;;;;21.30;11.38;;;18.60;99.90;;;;;;4119561;28;20058;-68
2021/09/08 07:04:42;;;;;;;18.73;11.40;;;18.70;99.90;;;;;;4120954;28;20125;-67
2021/09/08 07:06:43;;;;;;;20.90;11.13;;;18.80;99.90;;;;;;4122961;28;20133;-68
2021/09/08 07:08:43;;;;;;;17.55;11.18;;;18.80;99.90;;;;;;4123621;28;20126;-68
2021/09/08 07:10:44;;;;;;;19.17;11.45;;;18.80;99.90;;;;;;4122912;28;20125;-68
2021/09/08 07:12:44;;;;;;;18.30;10.90;;;18.80;99.90;;;;;;4121300;28;20066;-67
2021/09/08 07:14:45;;;;;;;16.30;10.15;;;18.90;99.90;;;;;;4122147;28;20085;-68
2021/09/08 07:16:46;;;;;;;19.25;10.07;;;19.00;99.90;;;;;;4119204;28;20045;-68
2021/09/08 07:18:46;;;;;;;15.48;9.73;;;19.00;99.90;;;;;;4120286;28;20039;-68
2021/09/08 07:20:47;;;;;;;16.08;10.50;;;19.10;99.90;;;;;;4122248;28;20092;-68
2021/09/08 07:22:48;;;;;;;19.85;10.40;;;19.20;99.90;;;;;;4119150;28;20085;-67
2021/09/08 07:24:48;;;;;;;18.40;10.23;;;19.20;99.90;;;;;;4122678;28;20149;-68
2021/09/08 07:26:49;;;;;;;15.90;9.80;;;19.20;99.90;;;;;;4119734;28;20097;-68
2021/09/08 07:28:49;;;;;;;16.95;9.80;;;19.30;99.90;;;;;;4121015;28;20552;-68
2021/09/08 07:30:53;;;;;;;18.88;10.88;;;19.30;99.90;;;;;;4118081;28;20070;-68
2021/09/08 07:32:54;;;;;;;19.73;11.35;;;19.40;99.90;;;;;;4119989;28;20125;-68
2021/09/08 07:34:58;;;;;;;15.15;9.45;;;19.50;99.90;;;;;;4120262;28;20074;-68
2021/09/08 07:36:58;;;;;;;18.08;9.27;;;19.60;99.90;;;;;;4117858;28;20121;-68
2021/09/08 07:38:59;;;;;;;18.85;10.10;;;19.60;99.90;;;;;;4121029;28;20120;-68
2021/09/08 07:40:59;;;;;;;15.32;10.02;;;19.80;99.90;;;;;;4117566;28;20057;-68
2021/09/08 07:43:00;;;;;;;15.95;10.48;;;19.90;99.90;;;;;;4121648;28;20133;-68
2021/09/08 07:45:00;;;;;;;24.95;11.93;;;19.90;99.90;;;;;;4119688;28;20062;-68
2021/09/08 07:47:01;;;;;;;15.43;10.90;;;20.10;99.90;;;;;;4122937;28;20118;-68
2021/09/08 07:49:02;;;;;;;15.88;9.88;;;20.20;99.90;;;;;;4117076;28;20701;-68
2021/09/08 07:51:03;;;;;;;18.60;10.68;;;20.20;99.90;;;;;;4118635;28;20058;-68
2021/09/08 07:53:08;;;;;;;15.43;10.13;;;20.30;99.90;;;;;;4118882;28;20429;-68
2021/09/08 07:55:09;;;;;;;17.65;9.98;;;20.50;99.90;;;;;;4117684;28;20540;-68
2021/09/08 07:57:10;;;;;;;17.95;11.23;;;20.50;99.90;;;;;;4119254;28;20137;-68
2021/09/08 07:59:10;;;;;;;16.95;10.80;;;20.60;99.90;;;;;;4119186;28;20125;-68
2021/09/08 08:01:11;;;;;;;16.23;10.63;;;20.70;99.90;;;;;;4120105;28;20093;-68
2021/09/08 08:03:12;;;;;;;14.02;9.25;;;20.80;99.90;;;;;;4123222;28;20923;-68
2021/09/08 08:05:17;;;;;;;20.92;10.52;;;20.90;99.90;;;;;;4122063;28;20136;-68
2021/09/08 08:07:17;;;;;;;16.65;9.68;;;21.00;99.90;;;;;;4121546;28;20120;-68
2021/09/08 08:09:18;;;;;;;23.48;10.48;;;21.10;99.90;;;;;;4124957;28;20042;-68
2021/09/08 08:11:18;;;;;;;15.80;10.02;;;21.20;99.90;;;;;;4121873;28;20038;-68
2021/09/08 08:13:19;;;;;;;11.90;8.38;;;21.30;99.90;;;;;;4123089;28;20104;-68
2021/09/08 08:15:20;;;;;;;13.80;9.05;;;21.30;99.90;;;;;;4124466;28;20046;-68
2021/09/08 08:17:21;;;;;;;16.80;10.45;;;21.40;99.90;;;;;;4124809;28;20318;-68
2021/09/08 08:19:21;;;;;;;20.55;10.50;;;21.50;99.90;;;;;;4124723;28;20118;-68
2021/09/08 08:21:22;;;;;;;14.23;9.25;;;21.60;99.90;;;;;;4122889;28;20468;-67
2021/09/08 08:23:22;;;;;;;15.10;8.80;;;21.70;99.90;;;;;;4124309;28;20031;-67
2021/09/08 08:25:27;;;;;;;11.98;8.57;;;21.80;99.90;;;;;;4122833;28;20088;-67
2021/09/08 08:27:28;;;;;;;14.98;9.35;;;21.90;99.90;;;;;;4121415;28;20238;-68
2021/09/08 08:29:29;;;;;;;12.02;8.25;;;22.00;99.90;;;;;;4122831;28;20145;-68
2021/09/08 08:31:30;;;;;;;14.57;10.05;;;22.10;99.90;;;;;;4118327;28;20226;-68
2021/09/08 08:33:31;;;;;;;15.25;8.73;;;22.20;99.90;;;;;;4121475;28;20042;-67
2021/09/08 08:35:32;;;;;;;14.80;8.70;;;22.30;99.90;;;;;;4119373;28;20439;-67
2021/09/08 08:37:33;;;;;;;15.77;9.83;;;22.40;99.90;;;;;;4122409;28;20039;-67
2021/09/08 08:39:34;;;;;;;16.00;9.80;;;22.50;99.90;;;;;;4121866;28;20356;-67
2021/09/08 08:41:35;;;;;;;15.10;9.27;;;22.50;99.90;;;;;;4118727;28;20133;-67
2021/09/08 08:43:37;;;;;;;14.23;9.55;;;22.60;99.90;;;;;;4118629;28;20030;-68
2021/09/08 08:45:38;;;;;;;13.93;9.32;;;22.70;99.90;;;;;;4122745;28;20058;-67
2021/09/08 08:47:38;;;;;;;14.20;9.60;;;22.80;99.90;;;;;;4122715;28;20049;-67
2021/09/08 08:49:40;;;;;;;14.93;8.75;;;22.90;99.90;;;;;;4118443;28;20464;-68
2021/09/08 08:51:40;;;;;;;14.90;10.20;;;23.00;99.90;;;;;;4118726;28;20085;-68
2021/09/08 08:53:41;;;;;;;17.85;9.30;;;23.10;99.90;;;;;;4132682;28;20786;-68
2021/09/08 08:55:42;;;;;;;15.82;9.55;;;23.10;99.90;;;;;;4117713;28;20120;-68
2021/09/08 08:57:48;;;;;;;13.52;9.18;;;23.20;99.90;;;;;;4102633;28;20887;-68
2021/09/08 08:59:51;;;;;;;13.15;9.52;;;23.40;99.90;;;;;;4107302;28;20050;-69
2021/09/08 09:01:52;;;;;;;16.27;9.13;;;23.50;99.90;;;;;;4108665;28;20054;-69
2021/09/08 09:03:59;;;;;;;13.15;8.30;;;23.60;99.90;;;;;;4119903;28;20042;-68
2021/09/08 09:06:04;;;;;;;15.20;8.88;;;23.70;99.90;;;;;;4119939;28;20057;-68
2021/09/08 09:08:07;;;;;;;14.23;8.75;;;23.80;99.90;;;;;;4122374;28;20042;-69
2021/09/08 09:10:12;;;;;;;14.45;8.88;;;23.90;99.90;;;;;;4122209;28;20050;-68
2021/09/08 09:12:14;;;;;;;12.63;8.57;;;24.00;99.90;;;;;;4121163;28;20061;-68
2021/09/08 09:14:17;;;;;;;12.65;8.85;;;24.10;99.90;;;;;;4124991;28;20555;-68
2021/09/08 09:16:18;;;;;;;12.60;8.40;;;24.20;99.90;;;;;;4123033;28;20038;-69
2021/09/08 09:18:18;;;;;;;11.40;7.65;;;24.30;99.90;;;;;;4121220;28;20046;-68
2021/09/08 09:20:24;;;;;;;12.43;7.43;;;24.40;99.90;;;;;;4120355;28;20042;-68
2021/09/08 09:22:38;;;;;;;10.65;7.28;;;24.50;99.90;;;;;;4119953;28;20046;-69
2021/09/08 09:24:41;;;;;;;9.77;7.32;;;24.50;99.90;;;;;;4121083;28;21238;-68
2021/09/08 09:26:43;;;;;;;11.63;7.93;;;24.60;99.90;;;;;;4121952;28;20725;-68
2021/09/08 09:28:44;;;;;;;11.27;7.50;;;24.70;99.90;;;;;;4121127;28;20047;-68
2021/09/08 09:30:47;;;;;;;14.80;7.80;;;24.80;99.90;;;;;;4120001;28;20061;-68
2021/09/08 09:32:49;;;;;;;13.45;8.13;;;24.90;99.90;;;;;;4118273;28;20069;-68
2021/09/08 09:34:57;;;;;;;8.88;6.60;;;25.00;99.90;;;;;;4122449;28;20612;-68
2021/09/08 09:36:59;;;;;;;10.85;7.88;;;25.10;99.90;;;;;;4122668;28;20041;-68
2021/09/08 09:39:00;;;;;;;12.93;8.18;;;25.20;99.90;;;;;;4119659;28;20457;-69
2021/09/08 09:41:01;;;;;;;11.40;7.55;;;25.30;99.90;;;;;;4120948;28;20034;-68
2021/09/08 09:43:03;;;;;;;11.07;7.18;;;25.40;99.90;;;;;;4123934;28;20041;-69
2021/09/08 09:45:06;;;;;;;11.25;7.25;;;25.40;99.90;;;;;;4121603;28;20035;-68
2021/09/08 09:47:07;;;;;;;16.58;8.13;;;25.50;99.90;;;;;;4123514;28;20569;-68
2021/09/08 09:49:08;;;;;;;13.57;7.82;;;25.60;99.90;;;;;;4121960;28;20026;-68
2021/09/08 09:51:11;;;;;;;13.18;7.78;;;25.70;99.90;;;;;;4122350;28;20042;-68
2021/09/08 09:53:11;;;;;;;10.05;7.00;;;25.70;99.90;;;;;;4122065;28;20108;-68
2021/09/08 09:55:12;;;;;;;10.98;7.00;;;25.80;99.90;;;;;;4121931;28;20050;-69
2021/09/08 09:57:13;;;;;;;15.02;9.27;;;25.80;99.90;;;;;;4121242;28;20042;-69
2021/09/08 09:59:13;;;;;;;12.35;8.55;;;25.90;99.50;;;;;;4123712;28;20097;-69
2021/09/08 10:01:16;;;;;;;9.65;7.20;;;25.90;98.70;;;;;;4120889;28;20890;-69
2021/09/08 10:03:19;;;;;;;11.02;7.70;;;25.90;99.50;;;;;;4122735;28;20042;-68
2021/09/08 10:05:20;;;;;;;11.82;7.95;;;25.90;99.10;;;;;;4123691;28;20030;-68
2021/09/08 10:07:24;;;;;;;8.98;6.25;;;25.90;98.70;;;;;;4120676;28;20469;-68
2021/09/08 10:09:27;;;;;;;11.07;7.38;;;26.00;99.50;;;;;;4123668;28;20041;-69
2021/09/08 10:11:33;;;;;;;12.65;7.15;;;26.00;99.00;;;;;;4120244;28;20435;-68
2021/09/08 10:13:57;;;;;;;9.50;6.80;;;26.10;98.80;;;;;;4115133;28;20533;-69
2021/09/08 10:15:59;;;;;;;7.80;6.28;;;26.10;98.40;;;;;;4118017;28;20093;-68
2021/09/08 10:18:27;;;;;;;9.77;7.38;;;26.20;98.90;;;;;;4117352;28;20022;-69
2021/09/08 10:20:28;;;;;;;9.18;6.68;;;26.30;98.30;;;;;;4117518;28;20092;-69
2021/09/08 10:22:29;;;;;;;8.93;6.68;;;26.30;98.20;;;;;;4118745;28;20084;-69